sensor_id;sensor_type;location;lat;lon;timestamp;pressure;altitude;pressure_sealevel;temperature;humidity
72925;BME280;61070;50.794;7.054;2024-02-26T00:00:19;99182.72;;;6.58;70.16
72925;BME280;61070;50.794;7.054;2024-02-26T00:01:19;99176.81;;;6.54;70.19
72925;BME280;61070;50.794;7.054;2024-02-26T00:02:19;99176.66;;;6.57;70.12
72925;BME280;61070;50.794;7.054;2024-02-26T00:03:20;99169.91;;;6.69;69.43
72925;BME280;61070;50.794;7.054;2024-02-26T00:04:20;99157.81;;;6.52;69.63
72925;BME280;61070;50.794;7.054;2024-02-26T00:05:21;99173.84;;;6.60;69.74
72925;BME280;61070;50.794;7.054;2024-02-26T00:06:22;99165.78;;;6.65;70.17
72925;BME280;61070;50.794;7.054;2024-02-26T00:07:22;99170.22;;;6.79;69.67
72925;BME280;61070;50.794;7.054;2024-02-26T00:08:22;99157.59;;;6.71;69.54
72925;BME280;61070;50.794;7.054;2024-02-26T00:09:23;99153.81;;;6.61;70.11
72925;BME280;61070;50.794;7.054;2024-02-26T00:10:23;99158.88;;;6.64;69.92
72925;BME280;61070;50.794;7.054;2024-02-26T00:11:24;99161.66;;;6.61;69.85
72925;BME280;61070;50.794;7.054;2024-02-26T00:12:24;99162.59;;;6.60;70.69
72925;BME280;61070;50.794;7.054;2024-02-26T00:13:25;99155.44;;;6.63;70.33
72925;BME280;61070;50.794;7.054;2024-02-26T00:14:25;99149.97;;;6.52;70.61
72925;BME280;61070;50.794;7.054;2024-02-26T00:15:25;99159.66;;;6.50;71.30
72925;BME280;61070;50.794;7.054;2024-02-26T00:16:26;99157.38;;;6.44;71.40
72925;BME280;61070;50.794;7.054;2024-02-26T00:17:26;99155.19;;;6.52;71.33
72925;BME280;61070;50.794;7.054;2024-02-26T00:18:27;99151.81;;;6.50;71.39
72925;BME280;61070;50.794;7.054;2024-02-26T00:19:27;99155.50;;;6.46;71.46
72925;BME280;61070;50.794;7.054;2024-02-26T00:20:27;99159.31;;;6.40;72.26
72925;BME280;61070;50.794;7.054;2024-02-26T00:21:28;99163.59;;;6.57;71.20
72925;BME280;61070;50.794;7.054;2024-02-26T00:22:28;99158.56;;;6.54;71.18
72925;BME280;61070;50.794;7.054;2024-02-26T00:23:28;99158.06;;;6.47;71.35
72925;BME280;61070;50.794;7.054;2024-02-26T00:24:29;99145.25;;;6.59;71.29
72925;BME280;61070;50.794;7.054;2024-02-26T00:25:29;99158.72;;;6.51;71.45
72925;BME280;61070;50.794;7.054;2024-02-26T00:26:29;99156.53;;;6.59;71.45
72925;BME280;61070;50.794;7.054;2024-02-26T00:27:29;99159.81;;;6.63;70.57
72925;BME280;61070;50.794;7.054;2024-02-26T00:28:30;99152.66;;;6.66;69.99
72925;BME280;61070;50.794;7.054;2024-02-26T00:29:30;99161.50;;;6.64;70.56
72925;BME280;61070;50.794;7.054;2024-02-26T00:30:30;99164.84;;;6.66;70.56
72925;BME280;61070;50.794;7.054;2024-02-26T00:31:31;99155.84;;;6.56;71.36
72925;BME280;61070;50.794;7.054;2024-02-26T00:32:31;99154.59;;;6.63;71.52
72925;BME280;61070;50.794;7.054;2024-02-26T00:33:31;99164.94;;;6.64;71.69
72925;BME280;61070;50.794;7.054;2024-02-26T00:34:32;99151.47;;;6.72;71.28
72925;BME280;61070;50.794;7.054;2024-02-26T00:35:32;99149.81;;;6.85;71.15
72925;BME280;61070;50.794;7.054;2024-02-26T00:36:32;99147.16;;;6.71;71.02
72925;BME280;61070;50.794;7.054;2024-02-26T00:37:32;99152.88;;;6.78;71.71
72925;BME280;61070;50.794;7.054;2024-02-26T00:38:33;99151.16;;;6.62;71.29
72925;BME280;61070;50.794;7.054;2024-02-26T00:39:33;99162.41;;;6.63;71.78
72925;BME280;61070;50.794;7.054;2024-02-26T00:40:34;99151.97;;;6.63;71.97
72925;BME280;61070;50.794;7.054;2024-02-26T00:41:38;99153.81;;;6.61;72.60
72925;BME280;61070;50.794;7.054;2024-02-26T00:42:38;99159.13;;;6.59;72.66
72925;BME280;61070;50.794;7.054;2024-02-26T00:43:39;99152.97;;;6.60;71.53
72925;BME280;61070;50.794;7.054;2024-02-26T00:44:40;99148.94;;;6.55;72.50
72925;BME280;61070;50.794;7.054;2024-02-26T00:45:40;99142.72;;;6.41;73.65
72925;BME280;61070;50.794;7.054;2024-02-26T00:46:40;99135.78;;;6.42;73.51
72925;BME280;61070;50.794;7.054;2024-02-26T00:47:41;99144.25;;;6.45;73.99
72925;BME280;61070;50.794;7.054;2024-02-26T00:48:42;99145.53;;;6.38;74.13
72925;BME280;61070;50.794;7.054;2024-02-26T00:49:43;99139.53;;;6.52;74.13
72925;BME280;61070;50.794;7.054;2024-02-26T00:50:43;99139.81;;;6.47;73.79
72925;BME280;61070;50.794;7.054;2024-02-26T00:51:43;99140.06;;;6.43;74.56
72925;BME280;61070;50.794;7.054;2024-02-26T00:52:44;99142.13;;;6.36;74.93
72925;BME280;61070;50.794;7.054;2024-02-26T00:53:44;99144.34;;;6.28;75.54
72925;BME280;61070;50.794;7.054;2024-02-26T00:54:44;99142.69;;;6.27;75.72
72925;BME280;61070;50.794;7.054;2024-02-26T00:55:44;99143.81;;;6.21;76.15
72925;BME280;61070;50.794;7.054;2024-02-26T00:56:45;99143.56;;;6.26;76.45
72925;BME280;61070;50.794;7.054;2024-02-26T00:57:45;99143.31;;;6.31;76.08
72925;BME280;61070;50.794;7.054;2024-02-26T00:58:46;99141.41;;;6.34;76.74
72925;BME280;61070;50.794;7.054;2024-02-26T00:59:46;99134.16;;;6.39;75.88
72925;BME280;61070;50.794;7.054;2024-02-26T01:00:46;99146.88;;;6.30;76.22
72925;BME280;61070;50.794;7.054;2024-02-26T01:01:46;99144.75;;;6.20;76.70
72925;BME280;61070;50.794;7.054;2024-02-26T01:02:47;99148.19;;;6.21;76.84
72925;BME280;61070;50.794;7.054;2024-02-26T01:03:47;99146.38;;;6.23;76.85
72925;BME280;61070;50.794;7.054;2024-02-26T01:04:48;99143.06;;;6.19;77.24
72925;BME280;61070;50.794;7.054;2024-02-26T01:05:48;99146.78;;;6.31;76.97
72925;BME280;61070;50.794;7.054;2024-02-26T01:06:48;99148.78;;;6.26;76.77
72925;BME280;61070;50.794;7.054;2024-02-26T01:07:49;99151.00;;;6.34;76.95
72925;BME280;61070;50.794;7.054;2024-02-26T01:08:49;99145.34;;;6.26;76.88
72925;BME280;61070;50.794;7.054;2024-02-26T01:09:49;99150.22;;;6.16;77.66
72925;BME280;61070;50.794;7.054;2024-02-26T01:10:49;99156.28;;;6.16;77.83
72925;BME280;61070;50.794;7.054;2024-02-26T01:11:50;99151.06;;;6.16;77.68
72925;BME280;61070;50.794;7.054;2024-02-26T01:12:51;99150.41;;;6.13;78.06
72925;BME280;61070;50.794;7.054;2024-02-26T01:13:51;99152.81;;;6.16;77.93
72925;BME280;61070;50.794;7.054;2024-02-26T01:14:56;99151.00;;;6.18;77.86
72925;BME280;61070;50.794;7.054;2024-02-26T01:15:56;99139.88;;;6.14;77.67
72925;BME280;61070;50.794;7.054;2024-02-26T01:16:57;99135.94;;;6.07;78.30
72925;BME280;61070;50.794;7.054;2024-02-26T01:17:57;99127.28;;;6.07;78.39
72925;BME280;61070;50.794;7.054;2024-02-26T01:18:58;99133.50;;;6.20;78.25
72925;BME280;61070;50.794;7.054;2024-02-26T01:19:58;99127.19;;;6.24;77.89
72925;BME280;61070;50.794;7.054;2024-02-26T01:20:58;99130.38;;;6.13;78.44
72925;BME280;61070;50.794;7.054;2024-02-26T01:21:59;99132.06;;;6.14;78.61
72925;BME280;61070;50.794;7.054;2024-02-26T01:22:59;99133.50;;;6.20;78.88
72925;BME280;61070;50.794;7.054;2024-02-26T01:23:59;99138.09;;;6.15;78.96
72925;BME280;61070;50.794;7.054;2024-02-26T01:24:59;99138.59;;;6.06;79.01
72925;BME280;61070;50.794;7.054;2024-02-26T01:26:00;99141.75;;;6.12;78.66
72925;BME280;61070;50.794;7.054;2024-02-26T01:27:00;99141.50;;;6.17;78.95
72925;BME280;61070;50.794;7.054;2024-02-26T01:28:00;99138.09;;;6.15;78.52
72925;BME280;61070;50.794;7.054;2024-02-26T01:29:00;99136.34;;;6.15;78.64
72925;BME280;61070;50.794;7.054;2024-02-26T01:30:03;99134.16;;;6.08;78.90
72925;BME280;61070;50.794;7.054;2024-02-26T01:31:04;99142.25;;;6.03;79.25
72925;BME280;61070;50.794;7.054;2024-02-26T01:32:07;99147.34;;;6.05;79.37
72925;BME280;61070;50.794;7.054;2024-02-26T01:33:07;99143.91;;;6.04;79.31
72925;BME280;61070;50.794;7.054;2024-02-26T01:34:07;99139.69;;;6.02;79.80
72925;BME280;61070;50.794;7.054;2024-02-26T01:35:08;99149.03;;;6.06;79.67
72925;BME280;61070;50.794;7.054;2024-02-26T01:36:10;99146.84;;;5.98;79.96
72925;BME280;61070;50.794;7.054;2024-02-26T01:37:11;99141.81;;;6.11;79.76
72925;BME280;61070;50.794;7.054;2024-02-26T01:38:11;99136.00;;;6.06;79.81
72925;BME280;61070;50.794;7.054;2024-02-26T01:39:11;99143.56;;;6.10;79.84
72925;BME280;61070;50.794;7.054;2024-02-26T01:40:12;99135.25;;;6.04;79.77
72925;BME280;61070;50.794;7.054;2024-02-26T01:41:17;99139.97;;;5.97;80.48
72925;BME280;61070;50.794;7.054;2024-02-26T01:42:18;99140.81;;;5.98;80.42
72925;BME280;61070;50.794;7.054;2024-02-26T01:43:18;99137.09;;;6.02;80.32
72925;BME280;61070;50.794;7.054;2024-02-26T01:44:19;99130.72;;;6.23;79.95
72925;BME280;61070;50.794;7.054;2024-02-26T01:45:19;99137.13;;;6.17;79.86
72925;BME280;61070;50.794;7.054;2024-02-26T01:46:24;99126.94;;;6.29;79.31
72925;BME280;61070;50.794;7.054;2024-02-26T01:47:26;99132.75;;;6.18;79.28
72925;BME280;61070;50.794;7.054;2024-02-26T01:48:27;99126.44;;;6.22;79.28
72925;BME280;61070;50.794;7.054;2024-02-26T01:49:28;99133.31;;;6.23;79.18
72925;BME280;61070;50.794;7.054;2024-02-26T01:50:28;99127.50;;;6.34;79.45
72925;BME280;61070;50.794;7.054;2024-02-26T01:51:30;99122.13;;;6.21;79.49
72925;BME280;61070;50.794;7.054;2024-02-26T01:52:32;99130.97;;;6.18;79.19
72925;BME280;61070;50.794;7.054;2024-02-26T01:53:33;99118.78;;;6.19;79.48
72925;BME280;61070;50.794;7.054;2024-02-26T01:54:37;99113.47;;;6.05;79.56
72925;BME280;61070;50.794;7.054;2024-02-26T01:55:38;99111.00;;;6.02;79.83
72925;BME280;61070;50.794;7.054;2024-02-26T01:56:39;99113.97;;;5.95;80.03
72925;BME280;61070;50.794;7.054;2024-02-26T01:57:44;99124.59;;;5.91;80.83
72925;BME280;61070;50.794;7.054;2024-02-26T01:58:45;99109.84;;;5.91;80.73
72925;BME280;61070;50.794;7.054;2024-02-26T01:59:45;99109.78;;;5.93;80.46
72925;BME280;61070;50.794;7.054;2024-02-26T02:00:46;99107.28;;;5.90;80.54
72925;BME280;61070;50.794;7.054;2024-02-26T02:01:48;99109.41;;;5.83;80.79
72925;BME280;61070;50.794;7.054;2024-02-26T02:02:52;99115.09;;;5.90;80.87
72925;BME280;61070;50.794;7.054;2024-02-26T02:03:56;99112.88;;;6.00;80.33
72925;BME280;61070;50.794;7.054;2024-02-26T02:04:57;99109.34;;;6.01;80.32
72925;BME280;61070;50.794;7.054;2024-02-26T02:05:58;99115.47;;;6.00;80.34
72925;BME280;61070;50.794;7.054;2024-02-26T02:07:00;99105.53;;;5.90;80.56
72925;BME280;61070;50.794;7.054;2024-02-26T02:08:00;99116.16;;;6.03;80.74
72925;BME280;61070;50.794;7.054;2024-02-26T02:09:00;99116.66;;;5.94;80.44
72925;BME280;61070;50.794;7.054;2024-02-26T02:10:07;99101.84;;;5.94;80.60
72925;BME280;61070;50.794;7.054;2024-02-26T02:11:07;99106.91;;;5.98;80.42
72925;BME280;61070;50.794;7.054;2024-02-26T02:12:10;99104.22;;;5.99;80.62
72925;BME280;61070;50.794;7.054;2024-02-26T02:13:11;99106.00;;;5.99;80.27
72925;BME280;61070;50.794;7.054;2024-02-26T02:14:11;99105.53;;;5.90;80.37
72925;BME280;61070;50.794;7.054;2024-02-26T02:15:11;99106.22;;;5.94;80.88
72925;BME280;61070;50.794;7.054;2024-02-26T02:16:12;99109.41;;;5.83;80.76
72925;BME280;61070;50.794;7.054;2024-02-26T02:17:12;99108.63;;;5.81;80.92
72925;BME280;61070;50.794;7.054;2024-02-26T02:18:12;99109.16;;;5.88;80.90
72925;BME280;61070;50.794;7.054;2024-02-26T02:19:13;99115.19;;;5.88;80.58
72925;BME280;61070;50.794;7.054;2024-02-26T02:20:17;99118.53;;;5.92;80.27
72925;BME280;61070;50.794;7.054;2024-02-26T02:21:18;99116.28;;;5.84;81.13
72925;BME280;61070;50.794;7.054;2024-02-26T02:22:18;99123.84;;;5.89;81.25
72925;BME280;61070;50.794;7.054;2024-02-26T02:23:18;99110.63;;;5.93;81.07
72925;BME280;61070;50.794;7.054;2024-02-26T02:24:19;99116.78;;;5.91;80.85
72925;BME280;61070;50.794;7.054;2024-02-26T02:25:19;99107.06;;;5.94;80.23
72925;BME280;61070;50.794;7.054;2024-02-26T02:26:20;99106.66;;;6.02;80.54
72925;BME280;61070;50.794;7.054;2024-02-26T02:27:20;99110.38;;;5.98;80.61
72925;BME280;61070;50.794;7.054;2024-02-26T02:28:21;99113.31;;;5.92;80.63
72925;BME280;61070;50.794;7.054;2024-02-26T02:29:22;99110.97;;;5.86;81.33
72925;BME280;61070;50.794;7.054;2024-02-26T02:30:25;99106.13;;;5.95;80.97
72925;BME280;61070;50.794;7.054;2024-02-26T02:31:26;99102.69;;;5.95;81.07
72925;BME280;61070;50.794;7.054;2024-02-26T02:32:27;99106.81;;;5.99;81.02
72925;BME280;61070;50.794;7.054;2024-02-26T02:33:29;99101.72;;;5.98;80.77
72925;BME280;61070;50.794;7.054;2024-02-26T02:34:30;99104.31;;;5.98;81.09
72925;BME280;61070;50.794;7.054;2024-02-26T02:35:31;99100.94;;;5.95;81.15
72925;BME280;61070;50.794;7.054;2024-02-26T02:36:31;99109.16;;;5.88;81.02
72925;BME280;61070;50.794;7.054;2024-02-26T02:37:31;99108.63;;;5.81;81.57
72925;BME280;61070;50.794;7.054;2024-02-26T02:38:31;99106.59;;;5.86;81.75
72925;BME280;61070;50.794;7.054;2024-02-26T02:39:34;99103.09;;;5.87;81.11
72925;BME280;61070;50.794;7.054;2024-02-26T02:40:34;99108.13;;;5.90;81.51
72925;BME280;61070;50.794;7.054;2024-02-26T02:41:34;99094.78;;;5.96;80.76
72925;BME280;61070;50.794;7.054;2024-02-26T02:42:34;99100.00;;;5.96;81.56
72925;BME280;61070;50.794;7.054;2024-02-26T02:43:35;99104.97;;;6.01;81.20
72925;BME280;61070;50.794;7.054;2024-02-26T02:44:35;99100.28;;;5.92;81.23
72925;BME280;61070;50.794;7.054;2024-02-26T02:45:35;99114.16;;;5.92;81.33
72925;BME280;61070;50.794;7.054;2024-02-26T02:46:35;99103.09;;;5.87;80.99
72925;BME280;61070;50.794;7.054;2024-02-26T02:47:36;99098.63;;;5.89;81.16
72925;BME280;61070;50.794;7.054;2024-02-26T02:48:38;99098.41;;;5.94;80.51
72925;BME280;61070;50.794;7.054;2024-02-26T02:49:38;99106.00;;;5.99;81.25
72925;BME280;61070;50.794;7.054;2024-02-26T02:50:38;99110.72;;;5.90;80.75
72925;BME280;61070;50.794;7.054;2024-02-26T02:51:39;99108.31;;;5.87;81.09
72925;BME280;61070;50.794;7.054;2024-02-26T02:52:39;99106.44;;;5.89;81.22
72925;BME280;61070;50.794;7.054;2024-02-26T02:53:39;99113.31;;;5.92;81.03
72925;BME280;61070;50.794;7.054;2024-02-26T02:54:40;99113.31;;;5.92;81.14
72925;BME280;61070;50.794;7.054;2024-02-26T02:55:41;99126.38;;;5.90;81.45
72925;BME280;61070;50.794;7.054;2024-02-26T02:56:42;99116.13;;;5.87;81.82
72925;BME280;61070;50.794;7.054;2024-02-26T02:57:42;99118.88;;;5.84;81.93
72925;BME280;61070;50.794;7.054;2024-02-26T02:58:42;99116.44;;;5.81;82.11
72925;BME280;61070;50.794;7.054;2024-02-26T02:59:43;99121.59;;;5.83;82.48
72925;BME280;61070;50.794;7.054;2024-02-26T03:00:43;99119.97;;;5.80;82.48
72925;BME280;61070;50.794;7.054;2024-02-26T03:01:44;99126.63;;;5.86;82.43
72925;BME280;61070;50.794;7.054;2024-02-26T03:02:44;99127.53;;;5.85;82.98
72925;BME280;61070;50.794;7.054;2024-02-26T03:03:45;99131.16;;;5.82;83.52
72925;BME280;61070;50.794;7.054;2024-02-26T03:04:45;99135.78;;;5.77;83.97
72925;BME280;61070;50.794;7.054;2024-02-26T03:05:45;99126.94;;;5.80;84.10
72925;BME280;61070;50.794;7.054;2024-02-26T03:06:46;99133.78;;;5.82;84.06
72925;BME280;61070;50.794;7.054;2024-02-26T03:07:46;99134.69;;;5.81;84.13
72925;BME280;61070;50.794;7.054;2024-02-26T03:08:46;99133.78;;;5.82;83.76
72925;BME280;61070;50.794;7.054;2024-02-26T03:09:47;99131.16;;;5.82;84.00
72925;BME280;61070;50.794;7.054;2024-02-26T03:10:47;99132.91;;;5.82;83.66
72925;BME280;61070;50.794;7.054;2024-02-26T03:11:47;99136.19;;;5.85;83.60
72925;BME280;61070;50.794;7.054;2024-02-26T03:12:47;99128.72;;;5.79;83.24
72925;BME280;61070;50.794;7.054;2024-02-26T03:13:48;99124.00;;;5.86;83.17
72925;BME280;61070;50.794;7.054;2024-02-26T03:14:48;99135.91;;;5.91;82.57
72925;BME280;61070;50.794;7.054;2024-02-26T03:15:48;99135.00;;;5.92;82.88
72925;BME280;61070;50.794;7.054;2024-02-26T03:16:49;99131.06;;;5.84;83.10
72925;BME280;61070;50.794;7.054;2024-02-26T03:17:49;99131.69;;;5.89;83.33
72925;BME280;61070;50.794;7.054;2024-02-26T03:18:49;99125.63;;;5.88;82.96
72925;BME280;61070;50.794;7.054;2024-02-26T03:19:50;99121.50;;;5.84;83.41
72925;BME280;61070;50.794;7.054;2024-02-26T03:20:53;99127.22;;;5.91;83.02
72925;BME280;61070;50.794;7.054;2024-02-26T03:21:53;99126.47;;;5.89;83.07
72925;BME280;61070;50.794;7.054;2024-02-26T03:22:53;99126.63;;;5.86;82.76
72925;BME280;61070;50.794;7.054;2024-02-26T03:23:54;99126.63;;;5.86;83.23
72925;BME280;61070;50.794;7.054;2024-02-26T03:24:55;99122.00;;;5.91;83.12
72925;BME280;61070;50.794;7.054;2024-02-26T03:25:55;99125.72;;;5.87;83.38
72925;BME280;61070;50.794;7.054;2024-02-26T03:26:56;99128.13;;;5.90;82.94
72925;BME280;61070;50.794;7.054;2024-02-26T03:27:56;99122.19;;;5.88;83.11
72925;BME280;61070;50.794;7.054;2024-02-26T03:28:56;99126.03;;;5.81;83.07
72925;BME280;61070;50.794;7.054;2024-02-26T03:29:57;99119.63;;;5.86;82.71
72925;BME280;61070;50.794;7.054;2024-02-26T03:30:57;99124.38;;;5.95;82.69
72925;BME280;61070;50.794;7.054;2024-02-26T03:31:57;99121.16;;;5.90;82.49
72925;BME280;61070;50.794;7.054;2024-02-26T03:32:58;99114.66;;;5.99;81.74
72925;BME280;61070;50.794;7.054;2024-02-26T03:33:58;99111.19;;;5.99;81.32
72925;BME280;61070;50.794;7.054;2024-02-26T03:34:58;99116.22;;;6.02;81.72
72925;BME280;61070;50.794;7.054;2024-02-26T03:36:00;99118.19;;;5.98;82.22
72925;BME280;61070;50.794;7.054;2024-02-26T03:37:00;99120.69;;;6.00;82.23
72925;BME280;61070;50.794;7.054;2024-02-26T03:38:01;99114.91;;;5.94;81.43
72925;BME280;61070;50.794;7.054;2024-02-26T03:39:02;99117.59;;;5.93;81.97
72925;BME280;61070;50.794;7.054;2024-02-26T03:40:07;99114.41;;;5.86;82.38
72925;BME280;61070;50.794;7.054;2024-02-26T03:41:08;99112.97;;;5.98;81.71
72925;BME280;61070;50.794;7.054;2024-02-26T03:42:08;99119.63;;;5.86;82.17
72925;BME280;61070;50.794;7.054;2024-02-26T03:43:09;99119.94;;;5.98;82.06
72925;BME280;61070;50.794;7.054;2024-02-26T03:44:09;99110.69;;;5.92;81.80
72925;BME280;61070;50.794;7.054;2024-02-26T03:45:10;99113.38;;;6.06;81.41
72925;BME280;61070;50.794;7.054;2024-02-26T03:46:10;99115.94;;;5.90;81.94
72925;BME280;61070;50.794;7.054;2024-02-26T03:47:11;99114.81;;;5.96;81.93
72925;BME280;61070;50.794;7.054;2024-02-26T03:48:12;99116.13;;;5.87;82.34
72925;BME280;61070;50.794;7.054;2024-02-26T03:49:12;99121.25;;;5.89;82.54
72925;BME280;61070;50.794;7.054;2024-02-26T03:50:13;99114.06;;;5.94;82.12
72925;BME280;61070;50.794;7.054;2024-02-26T03:51:13;99124.97;;;6.01;82.16
72925;BME280;61070;50.794;7.054;2024-02-26T03:52:14;99121.34;;;5.87;82.38
72925;BME280;61070;50.794;7.054;2024-02-26T03:53:15;99120.56;;;5.85;83.29
72925;BME280;61070;50.794;7.054;2024-02-26T03:54:15;99132.91;;;5.82;82.98
72925;BME280;61070;50.794;7.054;2024-02-26T03:55:15;99123.66;;;5.76;83.51
72925;BME280;61070;50.794;7.054;2024-02-26T03:56:15;99123.66;;;5.76;83.80
72925;BME280;61070;50.794;7.054;2024-02-26T03:57:16;99123.84;;;5.73;84.29
72925;BME280;61070;50.794;7.054;2024-02-26T03:58:16;99133.44;;;5.88;84.18
72925;BME280;61070;50.794;7.054;2024-02-26T03:59:16;99132.00;;;5.83;83.46
72925;BME280;61070;50.794;7.054;2024-02-26T04:00:17;99127.44;;;5.86;83.64
72925;BME280;61070;50.794;7.054;2024-02-26T04:01:17;99131.56;;;5.92;82.96
72925;BME280;61070;50.794;7.054;2024-02-26T04:02:18;99135.50;;;5.82;83.36
72925;BME280;61070;50.794;7.054;2024-02-26T04:03:19;99136.69;;;5.93;83.70
72925;BME280;61070;50.794;7.054;2024-02-26T04:04:20;99141.50;;;5.84;83.26
72925;BME280;61070;50.794;7.054;2024-02-26T04:05:20;99145.94;;;5.82;83.82
72925;BME280;61070;50.794;7.054;2024-02-26T04:06:20;99137.63;;;5.75;83.80
72925;BME280;61070;50.794;7.054;2024-02-26T04:07:21;99141.16;;;5.90;83.75
72925;BME280;61070;50.794;7.054;2024-02-26T04:08:21;99148.16;;;5.89;83.62
72925;BME280;61070;50.794;7.054;2024-02-26T04:09:22;99152.09;;;5.81;83.44
72925;BME280;61070;50.794;7.054;2024-02-26T04:10:22;99147.19;;;5.75;84.29
72925;BME280;61070;50.794;7.054;2024-02-26T04:11:23;99149.91;;;5.73;84.12
72925;BME280;61070;50.794;7.054;2024-02-26T04:12:23;99148.97;;;5.74;84.58
72925;BME280;61070;50.794;7.054;2024-02-26T04:13:23;99153.34;;;5.74;84.44
72925;BME280;61070;50.794;7.054;2024-02-26T04:14:24;99156.03;;;5.72;84.62
72925;BME280;61070;50.794;7.054;2024-02-26T04:15:24;99152.66;;;5.70;84.88
72925;BME280;61070;50.794;7.054;2024-02-26T04:16:25;99154.41;;;5.69;84.97
72925;BME280;61070;50.794;7.054;2024-02-26T04:17:25;99160.38;;;5.71;84.91
72925;BME280;61070;50.794;7.054;2024-02-26T04:18:25;99152.97;;;5.64;84.96
72925;BME280;61070;50.794;7.054;2024-02-26T04:19:26;99150.22;;;5.67;85.11
72925;BME280;61070;50.794;7.054;2024-02-26T04:20:26;99153.59;;;5.69;85.00
72925;BME280;61070;50.794;7.054;2024-02-26T04:21:26;99150.22;;;5.67;84.56
72925;BME280;61070;50.794;7.054;2024-02-26T04:22:26;99164.09;;;5.67;84.75
72925;BME280;61070;50.794;7.054;2024-02-26T04:23:27;99158.94;;;5.66;84.81
72925;BME280;61070;50.794;7.054;2024-02-26T04:24:27;99157.34;;;5.63;85.05
72925;BME280;61070;50.794;7.054;2024-02-26T04:25:27;99156.50;;;5.63;85.37
72925;BME280;61070;50.794;7.054;2024-02-26T04:26:30;99173.25;;;5.75;85.43
72925;BME280;61070;50.794;7.054;2024-02-26T04:27:30;99168.47;;;5.67;85.01
72925;BME280;61070;50.794;7.054;2024-02-26T04:28:30;99169.78;;;5.58;85.42
72925;BME280;61070;50.794;7.054;2024-02-26T04:29:31;99163.72;;;5.58;85.66
72925;BME280;61070;50.794;7.054;2024-02-26T04:30:31;99167.31;;;5.55;85.29
72925;BME280;61070;50.794;7.054;2024-02-26T04:31:31;99163.78;;;5.56;85.29
72925;BME280;61070;50.794;7.054;2024-02-26T04:32:33;99164.63;;;5.57;85.52
72925;BME280;61070;50.794;7.054;2024-02-26T04:33:34;99161.78;;;5.61;85.46
72925;BME280;61070;50.794;7.054;2024-02-26T04:34:35;99168.84;;;5.59;84.93
72925;BME280;61070;50.794;7.054;2024-02-26T04:35:35;99167.91;;;5.60;85.34
72925;BME280;61070;50.794;7.054;2024-02-26T04:36:35;99167.34;;;5.71;85.00
72925;BME280;61070;50.794;7.054;2024-02-26T04:37:35;99169.91;;;5.73;84.33
72925;BME280;61070;50.794;7.054;2024-02-26T04:38:36;99164.59;;;5.74;84.58
72925;BME280;61070;50.794;7.054;2024-02-26T04:39:36;99166.50;;;5.70;84.79
72925;BME280;61070;50.794;7.054;2024-02-26T04:40:36;99169.53;;;5.63;84.80
72925;BME280;61070;50.794;7.054;2024-02-26T04:41:36;99173.13;;;5.78;84.59
72925;BME280;61070;50.794;7.054;2024-02-26T04:42:37;99164.84;;;5.69;84.54
72925;BME280;61070;50.794;7.054;2024-02-26T04:43:38;99164.75;;;5.71;84.13
72925;BME280;61070;50.794;7.054;2024-02-26T04:44:41;99166.50;;;5.70;84.16
72925;BME280;61070;50.794;7.054;2024-02-26T04:45:41;99164.00;;;5.69;84.65
72925;BME280;61070;50.794;7.054;2024-02-26T04:46:42;99164.00;;;5.69;84.78
72925;BME280;61070;50.794;7.054;2024-02-26T04:47:42;99162.88;;;5.57;85.21
72925;BME280;61070;50.794;7.054;2024-02-26T04:48:42;99159.63;;;5.69;85.48
72925;BME280;61070;50.794;7.054;2024-02-26T04:49:44;99163.75;;;5.74;84.63
72925;BME280;61070;50.794;7.054;2024-02-26T04:50:45;99171.69;;;5.72;85.24
72925;BME280;61070;50.794;7.054;2024-02-26T04:51:45;99159.88;;;5.65;85.42
72925;BME280;61070;50.794;7.054;2024-02-26T04:52:45;99159.25;;;5.60;85.61
72925;BME280;61070;50.794;7.054;2024-02-26T04:53:45;99161.25;;;5.72;85.27
72925;BME280;61070;50.794;7.054;2024-02-26T04:54:46;99165.06;;;5.65;85.43
72925;BME280;61070;50.794;7.054;2024-02-26T04:55:46;99155.69;;;5.62;85.57
72925;BME280;61070;50.794;7.054;2024-02-26T04:56:46;99165.84;;;5.67;85.62
72925;BME280;61070;50.794;7.054;2024-02-26T04:57:47;99165.31;;;5.60;86.03
72925;BME280;61070;50.794;7.054;2024-02-26T04:58:47;99168.13;;;5.73;85.55
72925;BME280;61070;50.794;7.054;2024-02-26T04:59:48;99163.25;;;5.67;86.00
72925;BME280;61070;50.794;7.054;2024-02-26T05:00:48;99169.66;;;5.77;85.82
72925;BME280;61070;50.794;7.054;2024-02-26T05:01:48;99165.19;;;5.79;85.72
72925;BME280;61070;50.794;7.054;2024-02-26T05:02:49;99164.75;;;5.71;85.92
72925;BME280;61070;50.794;7.054;2024-02-26T05:03:49;99167.44;;;5.69;86.47
72925;BME280;61070;50.794;7.054;2024-02-26T05:04:49;99164.31;;;5.63;86.49
72925;BME280;61070;50.794;7.054;2024-02-26T05:05:50;99156.66;;;5.60;86.51
72925;BME280;61070;50.794;7.054;2024-02-26T05:06:50;99164.56;;;5.58;86.84
72925;BME280;61070;50.794;7.054;2024-02-26T05:07:50;99161.97;;;5.58;86.60
72925;BME280;61070;50.794;7.054;2024-02-26T05:08:51;99154.28;;;5.55;86.83
72925;BME280;61070;50.794;7.054;2024-02-26T05:09:51;99156.06;;;5.55;87.08
72925;BME280;61070;50.794;7.054;2024-02-26T05:10:52;99151.53;;;5.58;87.18
72925;BME280;61070;50.794;7.054;2024-02-26T05:11:52;99157.69;;;5.57;87.09
72925;BME280;61070;50.794;7.054;2024-02-26T05:12:52;99157.50;;;5.60;86.97
72925;BME280;61070;50.794;7.054;2024-02-26T05:13:53;99159.53;;;5.71;86.43
72925;BME280;61070;50.794;7.054;2024-02-26T05:14:54;99159.13;;;5.63;86.79
72925;BME280;61070;50.794;7.054;2024-02-26T05:15:54;99155.44;;;5.67;86.92
72925;BME280;61070;50.794;7.054;2024-02-26T05:16:54;99152.19;;;5.62;86.63
72925;BME280;61070;50.794;7.054;2024-02-26T05:17:55;99151.69;;;5.55;86.83
72925;BME280;61070;50.794;7.054;2024-02-26T05:18:55;99152.19;;;5.62;86.91
72925;BME280;61070;50.794;7.054;2024-02-26T05:19:55;99153.31;;;5.58;86.60
72925;BME280;61070;50.794;7.054;2024-02-26T05:20:56;99158.53;;;5.58;86.55
72925;BME280;61070;50.794;7.054;2024-02-26T05:21:56;99152.53;;;5.56;86.94
72925;BME280;61070;50.794;7.054;2024-02-26T05:22:57;99155.81;;;5.59;86.48
72925;BME280;61070;50.794;7.054;2024-02-26T05:23:58;99145.06;;;5.65;87.04
72925;BME280;61070;50.794;7.054;2024-02-26T05:24:59;99153.97;;;5.61;86.45